Time;durP1;ratioP1;P1;durP2;ratioP2;P2;SDS_P1;SDS_P2;PMS_P1;PMS_P2;Temp;Humidity;BMP_temperature;BMP_pressure;BME280_temperature;BME280_humidity;BME280_pressure;Samples;Min_cycle;Max_cycle;Signal;HPM_P1;HPM_P2
2022/11/12 00:00:38;;;;;;;8.25;7.95;;;4.60;99.90;;;;;;5000281;28;20057;-72
2022/11/12 00:03:04;;;;;;;8.00;7.70;;;4.70;99.90;;;;;;5009941;28;20033;-72
2022/11/12 00:05:30;;;;;;;7.20;7.00;;;4.50;99.90;;;;;;5000507;28;20029;-72
2022/11/12 00:07:55;;;;;;;9.73;9.32;;;4.30;99.90;;;;;;5001413;28;20022;-72
2022/11/12 00:10:22;;;;;;;8.20;7.90;;;4.30;99.90;;;;;;5007302;28;20025;-74
2022/11/12 00:12:47;;;;;;;7.80;7.50;;;4.20;99.90;;;;;;5005213;28;20029;-74
2022/11/12 00:15:13;;;;;;;6.97;6.78;;;4.00;99.90;;;;;;4999322;28;20022;-73
2022/11/12 00:17:39;;;;;;;6.20;6.00;;;4.00;99.90;;;;;;5013525;28;20109;-74
2022/11/12 00:20:05;;;;;;;7.35;7.15;;;4.10;99.90;;;;;;4999340;28;20026;-73
2022/11/12 00:22:31;;;;;;;6.65;6.45;;;4.10;99.90;;;;;;5012397;28;20022;-74
2022/11/12 00:24:57;;;;;;;9.15;8.73;;;3.90;99.90;;;;;;5008042;28;20451;-73
2022/11/12 00:27:22;;;;;;;6.97;6.78;;;3.90;99.90;;;;;;5005595;28;20384;-73
2022/11/12 00:29:48;;;;;;;7.30;7.10;;;3.90;99.90;;;;;;5000297;28;20026;-73
2022/11/12 00:32:14;;;;;;;6.90;6.70;;;3.90;99.90;;;;;;5000699;28;20046;-71
2022/11/12 00:34:39;;;;;;;7.95;7.65;;;3.90;99.90;;;;;;5005421;28;20445;-72
2022/11/12 00:37:05;;;;;;;9.07;8.48;;;4.00;99.90;;;;;;4992331;28;20109;-72
2022/11/12 00:39:31;;;;;;;5.40;5.20;;;3.80;99.90;;;;;;5006770;28;20391;-72
2022/11/12 00:41:57;;;;;;;6.20;6.00;;;3.70;99.90;;;;;;5005432;28;20030;-74
2022/11/12 00:44:22;;;;;;;6.18;5.97;;;3.70;99.90;;;;;;4998632;28;20022;-74
2022/11/12 00:46:48;;;;;;;6.03;5.82;;;3.60;99.90;;;;;;5001191;28;20026;-74
2022/11/12 00:49:14;;;;;;;6.40;6.20;;;3.50;99.90;;;;;;5006696;28;20072;-75
2022/11/12 00:51:39;;;;;;;5.90;5.70;;;3.40;99.90;;;;;;5005165;28;20071;-74
2022/11/12 00:54:05;;;;;;;6.38;6.18;;;3.40;99.90;;;;;;4998490;28;20095;-74
2022/11/12 00:56:31;;;;;;;5.38;5.18;;;3.40;99.90;;;;;;5000631;28;20042;-74
2022/11/12 00:58:57;;;;;;;5.55;5.35;;;3.40;99.90;;;;;;5006242;28;20035;-73
2022/11/12 01:01:23;;;;;;;5.15;4.95;;;3.40;99.90;;;;;;5005363;28;20137;-72
2022/11/12 01:03:49;;;;;;;5.25;5.05;;;3.40;99.90;;;;;;4999508;28;20519;-72
2022/11/12 01:06:18;;;;;;;5.22;5.03;;;3.20;99.90;;;;;;5000647;28;20038;-72
2022/11/12 01:08:44;;;;;;;4.95;4.75;;;3.40;99.90;;;;;;5006202;28;20162;-72
2022/11/12 01:11:11;;;;;;;5.13;4.93;;;3.30;99.90;;;;;;5004759;28;20478;-72
2022/11/12 01:13:39;;;;;;;5.55;5.35;;;3.20;99.90;;;;;;4999262;28;20029;-73
2022/11/12 01:16:14;;;;;;;6.40;6.20;;;3.20;99.90;;;;;;5000103;28;20539;-72
2022/11/12 01:18:39;;;;;;;6.27;6.07;;;3.30;99.90;;;;;;4986817;28;20041;-72
2022/11/12 01:21:06;;;;;;;5.18;4.97;;;3.30;99.90;;;;;;4999496;28;20030;-73
2022/11/12 01:23:37;;;;;;;6.15;5.95;;;3.20;99.90;;;;;;5003561;28;20578;-72
2022/11/12 01:26:12;;;;;;;6.22;6.03;;;3.20;99.90;;;;;;5004930;28;20076;-72
2022/11/12 01:28:38;;;;;;;7.27;6.97;;;3.30;99.90;;;;;;5001873;28;20376;-72
2022/11/12 01:31:20;;;;;;;5.10;4.90;;;3.30;99.90;;;;;;4996775;28;20022;-74
2022/11/12 01:33:48;;;;;;;8.88;8.30;;;3.20;99.90;;;;;;4993371;28;20030;-73
2022/11/12 01:36:16;;;;;;;5.20;5.00;;;3.20;99.90;;;;;;5005707;28;20033;-73
2022/11/12 01:38:43;;;;;;;5.18;4.97;;;3.30;99.90;;;;;;4992225;28;20106;-72
2022/11/12 01:41:12;;;;;;;5.25;5.05;;;3.50;99.90;;;;;;5004515;28;20125;-73
2022/11/12 01:43:37;;;;;;;5.95;5.75;;;3.50;99.90;;;;;;5003255;28;20120;-72
2022/11/12 01:46:12;;;;;;;5.30;5.10;;;3.40;99.90;;;;;;4997791;28;20113;-72
2022/11/12 01:48:44;;;;;;;6.25;5.95;;;3.40;99.90;;;;;;4999002;28;20023;-72
2022/11/12 01:51:12;;;;;;;5.10;4.90;;;3.40;99.90;;;;;;5004244;28;20098;-72
2022/11/12 01:53:43;;;;;;;12.00;9.05;;;3.40;99.90;;;;;;5004154;28;20037;-72
2022/11/12 01:56:09;;;;;;;5.10;4.90;;;3.40;99.90;;;;;;4991317;28;20023;-73
2022/11/12 01:58:37;;;;;;;5.28;5.07;;;3.50;99.90;;;;;;5007995;28;20030;-72
2022/11/12 02:01:03;;;;;;;4.63;4.53;;;3.30;99.90;;;;;;5002966;28;20369;-73
2022/11/12 02:03:29;;;;;;;5.55;5.35;;;3.40;99.90;;;;;;5004221;28;20080;-73
2022/11/12 02:06:03;;;;;;;5.20;5.00;;;3.40;99.90;;;;;;5001349;28;20072;-73
2022/11/12 02:08:30;;;;;;;4.95;4.75;;;3.50;99.90;;;;;;4997282;28;20125;-72
2022/11/12 02:10:56;;;;;;;5.15;4.95;;;3.40;99.90;;;;;;5002037;28;20507;-72
2022/11/12 02:16:07;;;;;;;5.35;5.15;;;3.30;99.90;;;;;;5005038;28;20117;-73
2022/11/12 02:18:33;;;;;;;5.22;5.03;;;3.30;99.90;;;;;;5004723;28;20026;-73
2022/11/12 02:21:06;;;;;;;4.57;4.47;;;3.30;99.90;;;;;;4991186;28;20502;-74
2022/11/12 02:23:32;;;;;;;4.90;4.70;;;3.40;99.90;;;;;;5002072;28;20030;-73
2022/11/12 02:26:02;;;;;;;5.90;5.70;;;3.40;99.90;;;;;;5002384;28;20077;-73
2022/11/12 02:28:31;;;;;;;4.68;4.55;;;3.40;99.90;;;;;;4990750;28;20037;-73
2022/11/12 02:30:57;;;;;;;4.65;4.55;;;3.30;99.90;;;;;;5002573;28;20396;-73
2022/11/12 02:33:22;;;;;;;4.75;4.63;;;3.20;99.90;;;;;;5007974;28;20022;-73
2022/11/12 02:35:48;;;;;;;4.50;4.40;;;3.20;99.90;;;;;;5009180;28;20113;-73
2022/11/12 02:38:13;;;;;;;4.53;4.43;;;3.20;99.90;;;;;;5001805;28;20114;-73
2022/11/12 02:40:39;;;;;;;7.85;7.40;;;3.30;99.90;;;;;;5000917;28;20029;-72
2022/11/12 02:43:04;;;;;;;4.32;4.22;;;3.30;99.90;;;;;;5008121;28;20037;-73
2022/11/12 02:45:31;;;;;;;5.47;5.28;;;3.30;99.90;;;;;;5007563;28;20021;-72
2022/11/12 02:47:56;;;;;;;4.10;4.00;;;3.40;99.90;;;;;;5002750;28;20018;-72
2022/11/12 02:50:22;;;;;;;4.30;4.20;;;3.40;99.90;;;;;;5001978;28;20045;-72
2022/11/12 02:52:47;;;;;;;4.40;4.30;;;3.30;99.90;;;;;;5008219;28;20022;-73
2022/11/12 02:55:13;;;;;;;4.55;4.45;;;3.30;99.90;;;;;;5025150;22;20034;-74
2022/11/12 02:57:39;;;;;;;6.47;6.18;;;3.30;99.90;;;;;;5006179;28;20022;-74
2022/11/12 03:00:08;;;;;;;5.57;5.38;;;3.30;99.90;;;;;;5012009;28;20052;-74
2022/11/12 03:02:33;;;;;;;5.15;4.95;;;3.30;99.90;;;;;;5007347;28;20026;-74
2022/11/12 03:04:59;;;;;;;4.30;4.20;;;3.30;99.90;;;;;;5012879;28;20036;-74
2022/11/12 03:07:24;;;;;;;5.75;5.55;;;3.30;99.90;;;;;;5002058;28;20026;-74
2022/11/12 03:09:51;;;;;;;5.78;5.57;;;3.30;99.90;;;;;;4998692;28;20030;-73
2022/11/12 03:12:16;;;;;;;5.38;5.18;;;3.30;99.90;;;;;;4987050;28;20038;-73
2022/11/12 03:14:42;;;;;;;4.22;4.13;;;3.30;99.90;;;;;;4990281;28;20034;-73
2022/11/12 03:17:08;;;;;;;4.63;4.53;;;3.30;99.90;;;;;;5002846;28;20040;-73
2022/11/12 03:19:33;;;;;;;4.63;4.50;;;3.20;99.90;;;;;;5007322;28;20042;-73
2022/11/12 03:21:59;;;;;;;4.45;4.35;;;3.10;99.90;;;;;;5006613;28;20018;-73
2022/11/12 03:24:24;;;;;;;4.95;4.75;;;3.20;99.90;;;;;;4993526;28;20030;-73
2022/11/12 03:26:50;;;;;;;5.32;5.13;;;3.20;99.90;;;;;;4990570;28;20458;-73
2022/11/12 03:29:16;;;;;;;10.73;9.88;;;3.20;99.90;;;;;;5001369;28;20022;-73
2022/11/12 03:31:42;;;;;;;4.68;4.57;;;3.20;99.90;;;;;;5006763;28;20081;-74
2022/11/12 03:34:07;;;;;;;4.82;4.70;;;3.30;99.90;;;;;;4992967;28;20484;-74
2022/11/12 03:36:33;;;;;;;5.03;4.82;;;3.30;99.90;;;;;;4982635;28;20042;-74
2022/11/12 03:38:58;;;;;;;5.35;5.15;;;3.20;99.90;;;;;;4981243;28;20030;-74
2022/11/12 03:41:24;;;;;;;6.35;6.05;;;3.30;99.90;;;;;;4986446;28;20460;-73
2022/11/12 03:43:49;;;;;;;5.32;5.13;;;3.40;99.90;;;;;;4988328;28;20492;-73
2022/11/12 03:46:15;;;;;;;4.65;4.55;;;3.40;99.90;;;;;;4994539;28;20048;-74
2022/11/12 03:48:40;;;;;;;4.40;4.30;;;3.40;99.90;;;;;;4981022;28;20504;-73
2022/11/12 03:51:06;;;;;;;4.80;4.65;;;3.50;99.90;;;;;;4981757;28;20034;-73
2022/11/12 03:53:31;;;;;;;5.20;5.00;;;3.50;99.90;;;;;;4981254;28;20035;-74
2022/11/12 03:55:57;;;;;;;4.97;4.80;;;3.50;99.90;;;;;;4994342;28;20045;-73
2022/11/12 03:58:22;;;;;;;6.00;5.80;;;3.60;99.90;;;;;;4993985;28;20065;-73
2022/11/12 04:00:48;;;;;;;4.45;4.35;;;3.60;99.90;;;;;;5001849;28;20030;-74
2022/11/12 04:03:13;;;;;;;4.35;4.25;;;3.50;99.90;;;;;;4997831;28;20058;-73
2022/11/12 04:08:35;;;;;;;5.13;4.93;;;3.30;99.90;;;;;;4981006;28;20490;-73
2022/11/12 04:11:12;;;;;;;3.92;3.83;;;3.20;99.90;;;;;;4994157;28;20084;-73
2022/11/12 04:13:40;;;;;;;4.47;4.38;;;3.10;99.90;;;;;;4980941;28;20105;-74
2022/11/12 04:21:50;;;;;;;;;;;3.00;99.90;;;;;;4986864;28;20044;-74
2022/11/12 04:27:00;;;;;;;4.40;4.30;;;2.90;99.90;;;;;;5002793;28;20649;-74
2022/11/12 04:32:10;;;;;;;4.32;4.22;;;2.80;99.90;;;;;;4993671;28;20295;-73
2022/11/12 04:34:36;;;;;;;4.47;4.38;;;2.80;99.90;;;;;;4993568;28;20031;-73
2022/11/12 04:37:04;;;;;;;4.35;4.25;;;2.80;99.90;;;;;;4982390;28;20428;-73
2022/11/12 04:39:29;;;;;;;7.60;7.10;;;2.80;99.90;;;;;;4996912;28;20494;-73
2022/11/12 04:47:42;;;;;;;4.03;3.92;;;2.60;99.90;;;;;;4951690;29;20118;-73
2022/11/12 04:50:17;;;;;;;4.35;4.25;;;2.40;99.90;;;;;;4985418;28;20053;-74
2022/11/12 04:52:42;;;;;;;5.72;5.53;;;2.40;99.90;;;;;;4999856;28;20022;-74
2022/11/12 04:55:09;;;;;;;4.63;4.53;;;2.40;99.90;;;;;;4999673;28;20030;-74
2022/11/12 04:57:36;;;;;;;4.80;4.63;;;2.50;99.90;;;;;;4993104;28;20488;-73
2022/11/12 05:00:02;;;;;;;4.38;4.28;;;2.30;99.90;;;;;;5005009;28;20037;-74
2022/11/12 05:02:28;;;;;;;4.85;4.70;;;2.30;99.90;;;;;;4993133;28;20018;-73
2022/11/12 05:04:53;;;;;;;3.72;3.63;;;2.10;99.90;;;;;;4979728;28;20033;-73
2022/11/12 05:07:19;;;;;;;4.57;4.47;;;2.00;99.90;;;;;;4985789;28;20101;-75
2022/11/12 05:09:44;;;;;;;4.15;4.05;;;2.20;99.90;;;;;;4986703;28;20109;-74
2022/11/12 05:12:10;;;;;;;7.00;6.60;;;2.30;99.90;;;;;;4979205;28;20022;-74
2022/11/12 05:14:36;;;;;;;4.28;4.18;;;2.30;99.90;;;;;;4979941;28;20027;-75
2022/11/12 05:17:01;;;;;;;4.07;3.97;;;2.20;99.90;;;;;;4985872;28;20035;-75
2022/11/12 05:19:27;;;;;;;4.95;4.75;;;2.20;99.90;;;;;;4986862;28;20038;-75
2022/11/12 05:22:05;;;;;;;4.40;4.30;;;2.20;99.90;;;;;;5012481;28;20105;-75
2022/11/12 05:24:38;;;;;;;4.60;4.50;;;2.20;99.90;;;;;;4995116;28;20092;-75
2022/11/12 05:27:07;;;;;;;8.93;8.07;;;2.20;99.90;;;;;;4981556;28;20124;-75
2022/11/12 05:29:33;;;;;;;4.40;4.30;;;2.20;99.90;;;;;;4979696;28;20034;-74
2022/11/12 05:31:59;;;;;;;4.25;4.15;;;2.30;99.90;;;;;;4982854;28;20022;-74
2022/11/12 05:34:24;;;;;;;4.05;3.95;;;2.40;99.90;;;;;;4989173;28;20034;-75
2022/11/12 05:36:50;;;;;;;4.32;4.22;;;2.30;99.90;;;;;;4990236;28;20026;-75
2022/11/12 05:39:16;;;;;;;6.63;6.10;;;2.40;99.90;;;;;;4992076;28;20031;-75
2022/11/12 05:41:41;;;;;;;4.55;4.45;;;2.30;99.90;;;;;;4992476;28;20030;-75
2022/11/12 05:44:07;;;;;;;5.25;5.05;;;2.30;99.90;;;;;;4989040;28;20113;-75
2022/11/12 05:46:32;;;;;;;4.18;4.07;;;2.30;99.90;;;;;;4982665;28;20058;-74
2022/11/12 05:48:58;;;;;;;4.63;4.53;;;2.30;99.90;;;;;;4979363;28;20472;-75
2022/11/12 05:51:24;;;;;;;5.07;4.88;;;2.20;99.90;;;;;;4992409;28;20387;-75
2022/11/12 05:53:49;;;;;;;4.97;4.78;;;2.20;99.90;;;;;;4978006;28;20081;-72
2022/11/12 05:56:15;;;;;;;4.68;4.55;;;2.30;99.90;;;;;;4991109;28;20097;-75
2022/11/12 05:58:40;;;;;;;4.63;4.53;;;2.30;99.90;;;;;;4978478;28;20034;-74
2022/11/12 06:01:06;;;;;;;5.22;5.03;;;2.20;99.90;;;;;;4983142;28;20027;-75
2022/11/12 06:03:32;;;;;;;4.55;4.35;;;2.20;99.90;;;;;;5001706;28;20105;-75
2022/11/12 06:05:58;;;;;;;3.88;3.78;;;2.10;99.90;;;;;;4981897;28;20388;-74
2022/11/12 06:08:23;;;;;;;4.20;4.10;;;2.00;99.90;;;;;;4985541;28;20484;-74
2022/11/12 06:10:50;;;;;;;4.18;4.07;;;2.10;99.90;;;;;;4981238;28;20113;-75
2022/11/12 06:13:16;;;;;;;6.75;6.55;;;2.00;99.90;;;;;;4978602;28;20069;-74
2022/11/12 06:15:42;;;;;;;5.03;4.82;;;2.20;99.90;;;;;;4982972;28;20481;-74
2022/11/12 06:18:07;;;;;;;4.05;3.95;;;2.20;99.90;;;;;;4999578;28;20036;-74
2022/11/12 06:20:33;;;;;;;4.43;4.32;;;1.90;99.90;;;;;;4983298;28;20031;-74
2022/11/12 06:22:59;;;;;;;4.70;4.60;;;1.70;99.90;;;;;;4988392;28;20109;-74
2022/11/12 06:25:25;;;;;;;4.47;4.38;;;1.80;99.90;;;;;;5002908;28;20117;-74
2022/11/12 06:27:50;;;;;;;4.25;4.15;;;1.80;99.90;;;;;;4988689;28;20110;-74
2022/11/12 06:30:16;;;;;;;5.05;4.85;;;1.90;99.90;;;;;;4981394;28;20026;-74
2022/11/12 06:32:45;;;;;;;5.50;5.30;;;1.90;99.90;;;;;;5005014;28;20037;-74
2022/11/12 06:35:11;;;;;;;4.63;4.53;;;1.80;99.90;;;;;;4982792;28;20081;-75
2022/11/12 06:37:37;;;;;;;4.28;4.18;;;1.80;99.90;;;;;;4985575;28;20049;-75
2022/11/12 06:40:03;;;;;;;3.63;3.53;;;1.80;99.90;;;;;;4990323;28;20033;-75
2022/11/12 06:42:28;;;;;;;4.25;4.15;;;1.60;99.90;;;;;;4992882;28;20030;-73
2022/11/12 06:44:54;;;;;;;3.95;3.85;;;1.70;99.90;;;;;;4979742;28;20030;-73
2022/11/12 06:47:19;;;;;;;5.85;5.53;;;1.80;99.90;;;;;;4988116;28;20031;-74
2022/11/12 06:49:45;;;;;;;4.43;4.32;;;1.80;99.90;;;;;;4981145;28;20472;-74
2022/11/12 06:52:10;;;;;;;4.95;4.75;;;1.80;99.90;;;;;;4979284;28;20033;-73
2022/11/12 06:54:36;;;;;;;4.70;4.57;;;1.90;99.90;;;;;;4991433;28;20104;-73
2022/11/12 06:57:02;;;;;;;5.30;5.10;;;2.10;99.90;;;;;;4991356;28;20045;-74
2022/11/12 06:59:27;;;;;;;4.43;4.32;;;2.00;99.90;;;;;;4991593;28;20036;-74
2022/11/12 07:01:53;;;;;;;21.35;19.50;;;2.10;99.90;;;;;;4977379;28;20026;-74
2022/11/12 07:04:18;;;;;;;5.68;5.47;;;1.60;99.90;;;;;;4982555;28;20069;-74
2022/11/12 07:06:44;;;;;;;4.22;4.13;;;1.70;99.90;;;;;;4985225;28;20110;-74
2022/11/12 07:09:10;;;;;;;4.15;4.00;;;1.40;99.90;;;;;;4982167;28;20046;-74
2022/11/12 07:11:36;;;;;;;5.88;5.68;;;1.20;99.90;;;;;;5008301;28;20105;-74
2022/11/12 07:14:05;;;;;;;4.32;4.22;;;1.40;99.90;;;;;;4986117;28;20457;-73
2022/11/12 07:16:31;;;;;;;3.80;3.70;;;1.10;99.90;;;;;;4988648;28;20022;-74
2022/11/12 07:18:56;;;;;;;4.55;4.45;;;1.10;99.90;;;;;;4984902;28;20038;-74
2022/11/12 07:21:22;;;;;;;4.88;4.70;;;1.20;99.90;;;;;;4981913;28;20027;-74
2022/11/12 07:23:48;;;;;;;4.95;4.75;;;1.40;99.90;;;;;;4985649;28;20031;-73
2022/11/12 07:26:18;;;;;;;10.70;9.98;;;1.70;99.90;;;;;;4988613;28;20101;-74
2022/11/12 07:28:45;;;;;;;5.05;4.85;;;1.80;99.90;;;;;;4984651;28;20030;-74
2022/11/12 07:31:12;;;;;;;4.82;4.63;;;1.90;99.90;;;;;;4981827;28;20035;-73
2022/11/12 07:33:38;;;;;;;5.55;5.35;;;2.20;99.90;;;;;;4985282;28;20023;-74
2022/11/12 07:36:06;;;;;;;4.68;4.57;;;2.30;99.90;;;;;;4991389;28;20396;-74
2022/11/12 07:38:33;;;;;;;4.55;4.45;;;2.30;99.90;;;;;;4993407;28;20033;-74
2022/11/12 07:41:07;;;;;;;5.28;5.07;;;2.20;99.90;;;;;;4994607;28;20093;-75
2022/11/12 07:43:34;;;;;;;4.95;4.75;;;2.30;99.90;;;;;;4994626;28;20032;-74
2022/11/12 07:46:01;;;;;;;5.53;5.32;;;2.30;99.90;;;;;;4993343;28;20033;-75
2022/11/12 07:48:31;;;;;;;4.55;4.45;;;2.30;99.90;;;;;;4997044;28;20095;-73
2022/11/12 07:51:02;;;;;;;4.55;4.45;;;2.30;99.90;;;;;;4988410;28;20033;-75
2022/11/12 07:53:27;;;;;;;5.07;4.88;;;2.40;99.90;;;;;;4974920;28;20027;-74
2022/11/12 07:55:58;;;;;;;5.15;4.95;;;2.40;99.90;;;;;;5006286;28;20040;-74
2022/11/12 07:58:25;;;;;;;5.93;5.72;;;2.50;99.90;;;;;;4994539;28;20048;-75
2022/11/12 08:00:52;;;;;;;4.50;4.40;;;2.40;99.90;;;;;;4993079;28;20516;-75
2022/11/12 08:03:18;;;;;;;4.70;4.57;;;2.50;99.90;;;;;;4994134;28;20473;-75
2022/11/12 08:05:44;;;;;;;5.57;5.38;;;2.70;99.90;;;;;;4994282;28;20081;-75
2022/11/12 08:08:10;;;;;;;4.70;4.55;;;2.80;99.90;;;;;;4992848;28;20027;-74
2022/11/12 08:10:36;;;;;;;4.50;4.40;;;2.90;99.90;;;;;;4986880;28;20031;-75
2022/11/12 08:13:02;;;;;;;8.55;8.05;;;2.70;99.90;;;;;;4988215;28;20026;-74
2022/11/12 08:15:27;;;;;;;5.20;5.00;;;2.70;99.90;;;;;;4993985;28;20023;-75
2022/11/12 08:17:53;;;;;;;5.50;5.30;;;2.40;99.90;;;;;;4992940;28;20029;-74
2022/11/12 08:20:18;;;;;;;6.40;6.20;;;2.40;99.90;;;;;;4981547;28;20076;-74
2022/11/12 08:22:44;;;;;;;5.80;5.55;;;2.40;99.90;;;;;;4980805;28;20110;-74
2022/11/12 08:25:09;;;;;;;6.20;6.00;;;2.30;99.90;;;;;;4985398;28;20117;-74
2022/11/12 08:27:35;;;;;;;6.20;6.00;;;2.40;99.90;;;;;;4973859;28;20080;-74
2022/11/12 08:30:02;;;;;;;6.43;6.22;;;2.60;99.90;;;;;;4980832;28;20066;-74
2022/11/12 08:32:28;;;;;;;5.93;5.72;;;2.90;99.90;;;;;;4994327;28;20018;-74
2022/11/12 08:34:53;;;;;;;5.82;5.63;;;3.00;99.90;;;;;;4993638;28;20030;-74
2022/11/12 08:37:19;;;;;;;5.45;5.25;;;3.10;99.90;;;;;;4991665;28;20480;-74
2022/11/12 08:39:44;;;;;;;5.97;5.78;;;3.30;99.90;;;;;;4980864;28;20084;-74
2022/11/12 08:42:10;;;;;;;5.80;5.60;;;3.30;99.90;;;;;;4978997;28;20019;-74
2022/11/12 08:44:35;;;;;;;6.00;5.80;;;3.40;99.90;;;;;;4986756;28;20031;-74
2022/11/12 08:47:01;;;;;;;5.55;5.35;;;3.50;99.90;;;;;;4986969;28;20096;-74
2022/11/12 08:49:28;;;;;;;6.03;5.82;;;3.60;99.90;;;;;;4980279;28;20449;-75
2022/11/12 08:51:54;;;;;;;5.70;5.50;;;3.80;99.90;;;;;;5006084;28;20018;-75
2022/11/12 08:54:19;;;;;;;5.80;5.60;;;4.00;99.90;;;;;;4980529;28;20034;-74
2022/11/12 08:56:45;;;;;;;6.13;5.93;;;4.00;99.90;;;;;;4993375;28;20578;-76
2022/11/12 08:59:10;;;;;;;5.80;5.60;;;4.10;99.90;;;;;;4985777;28;20066;-74
2022/11/12 09:01:36;;;;;;;6.97;6.78;;;4.20;99.90;;;;;;4986681;28;20033;-73
2022/11/12 09:04:01;;;;;;;5.97;5.78;;;4.20;99.90;;;;;;4979421;28;20030;-74
2022/11/12 09:06:27;;;;;;;7.15;6.95;;;4.30;99.90;;;;;;4992686;28;20421;-73
2022/11/12 09:08:52;;;;;;;5.32;5.13;;;4.40;99.90;;;;;;4984555;28;20023;-74
2022/11/12 09:11:18;;;;;;;5.60;5.40;;;4.40;99.90;;;;;;4986220;28;20014;-73
2022/11/12 09:13:43;;;;;;;5.93;5.72;;;4.60;99.90;;;;;;4990856;28;20022;-74
2022/11/12 09:16:09;;;;;;;6.22;6.03;;;4.60;99.90;;;;;;4992922;28;20105;-74
2022/11/12 09:18:35;;;;;;;6.30;6.10;;;4.60;99.90;;;;;;4999504;28;20161;-74
2022/11/12 09:21:07;;;;;;;7.40;7.18;;;4.70;99.90;;;;;;4997415;28;20435;-73
2022/11/12 09:23:34;;;;;;;6.47;6.28;;;4.90;99.90;;;;;;4992432;28;20491;-73
2022/11/12 09:26:00;;;;;;;9.82;8.85;;;4.80;99.90;;;;;;4992471;28;20077;-73
2022/11/12 09:28:26;;;;;;;7.82;7.53;;;4.70;99.90;;;;;;4983418;28;20444;-74
2022/11/12 09:30:53;;;;;;;8.63;8.32;;;4.90;99.90;;;;;;4988435;28;20503;-74
2022/11/12 09:33:25;;;;;;;8.45;8.15;;;5.00;99.90;;;;;;5003711;28;20038;-74
2022/11/12 09:35:52;;;;;;;8.07;7.78;;;5.10;99.90;;;;;;4978167;28;20065;-74
2022/11/12 09:38:18;;;;;;;8.77;8.48;;;5.20;99.90;;;;;;4983684;28;20018;-74
2022/11/12 09:40:50;;;;;;;8.63;8.32;;;5.30;99.90;;;;;;4986208;28;20057;-74
2022/11/12 09:43:26;;;;;;;7.90;7.60;;;5.40;99.90;;;;;;4981039;28;20022;-75
2022/11/12 09:45:54;;;;;;;9.30;9.00;;;5.40;99.90;;;;;;4983723;28;20034;-74
2022/11/12 09:48:25;;;;;;;9.52;9.02;;;5.30;99.90;;;;;;5001089;28;20169;-75
2022/11/12 09:50:51;;;;;;;10.27;9.88;;;5.40;99.90;;;;;;4979217;28;20100;-74
2022/11/12 09:53:21;;;;;;;9.80;9.40;;;5.50;99.90;;;;;;4980789;28;20062;-74
2022/11/12 09:55:48;;;;;;;10.57;10.18;;;5.40;99.90;;;;;;4990313;28;20396;-74
2022/11/12 09:58:16;;;;;;;9.82;9.52;;;5.60;99.90;;;;;;4977994;28;20108;-74
2022/11/12 10:00:55;;;;;;;11.00;10.60;;;5.70;99.90;;;;;;4984204;28;20038;-75
2022/11/12 10:03:36;;;;;;;9.68;9.38;;;5.60;99.90;;;;;;4985719;28;20034;-74
2022/11/12 10:06:11;;;;;;;9.90;9.50;;;5.70;99.90;;;;;;4983010;28;20027;-74
2022/11/12 10:08:47;;;;;;;11.07;10.68;;;5.60;99.90;;;;;;4979107;28;20544;-74
2022/11/12 10:12:30;;;;;;;16.23;15.40;;;5.70;99.90;;;;;;4992014;28;20031;-74
2022/11/12 10:14:54;;;;;;;13.23;12.63;;;5.70;99.90;;;;;;5003812;28;20053;-74
2022/11/12 10:17:23;;;;;;;11.52;11.13;;;5.80;99.90;;;;;;4982010;28;20027;-74
2022/11/12 10:20:05;;;;;;;11.23;10.82;;;5.80;99.90;;;;;;4991973;28;20038;-74
2022/11/12 10:22:45;;;;;;;11.98;11.55;;;5.60;99.90;;;;;;4991739;28;20026;-74
2022/11/12 10:25:18;;;;;;;10.75;10.35;;;5.70;99.90;;;;;;4987988;28;20101;-74
2022/11/12 10:27:53;;;;;;;11.40;11.00;;;5.80;99.90;;;;;;4991586;28;20022;-74
2022/11/12 10:30:22;;;;;;;32.25;15.63;;;6.00;99.90;;;;;;4992013;28;20050;-74
2022/11/12 10:32:50;;;;;;;11.10;10.70;;;6.10;99.90;;;;;;4988313;28;20110;-74
2022/11/12 10:35:18;;;;;;;12.40;11.98;;;5.90;99.90;;;;;;4982810;28;20101;-74
2022/11/12 10:37:56;;;;;;;11.82;11.43;;;6.10;99.90;;;;;;4982596;28;20042;-74
2022/11/12 10:40:24;;;;;;;11.70;11.30;;;6.20;99.90;;;;;;4999239;28;20500;-74
2022/11/12 10:43:20;;;;;;;12.85;12.35;;;6.40;99.90;;;;;;4990856;28;20027;-74
2022/11/12 10:45:48;;;;;;;12.98;12.48;;;6.60;99.90;;;;;;4982506;28;20440;-74
2022/11/12 10:48:33;;;;;;;11.93;11.52;;;6.70;99.90;;;;;;5006077;28;20029;-74
2022/11/12 10:50:59;;;;;;;13.18;12.68;;;6.60;99.90;;;;;;4982643;28;20101;-74
2022/11/12 10:53:36;;;;;;;14.63;14.02;;;6.70;99.90;;;;;;4995188;28;20026;-74
2022/11/12 10:56:04;;;;;;;12.82;12.32;;;6.80;99.90;;;;;;4994909;28;20034;-74
2022/11/12 10:58:30;;;;;;;13.30;12.70;;;6.90;99.90;;;;;;4994987;28;20022;-74
2022/11/12 11:00:56;;;;;;;14.18;13.68;;;6.90;99.90;;;;;;4987082;28;20049;-74
2022/11/12 11:03:35;;;;;;;13.57;13.07;;;6.90;99.90;;;;;;4990276;28;20062;-74
2022/11/12 11:06:23;;;;;;;12.40;12.00;;;7.00;99.90;;;;;;4993934;28;20113;-74
2022/11/12 11:08:51;;;;;;;14.00;13.50;;;7.00;99.90;;;;;;5006747;28;20022;-74
2022/11/12 11:11:26;;;;;;;12.23;11.82;;;7.10;99.90;;;;;;4993788;28;20109;-74
2022/11/12 11:13:55;;;;;;;14.30;13.80;;;7.30;99.90;;;;;;4994769;28;20854;-74
2022/11/12 11:16:26;;;;;;;14.30;13.80;;;7.30;99.90;;;;;;4994977;28;20042;-74
2022/11/12 11:19:03;;;;;;;13.65;13.15;;;7.30;99.90;;;;;;4994722;28;20113;-74
2022/11/12 11:21:58;;;;;;;13.80;13.30;;;7.10;99.90;;;;;;4981857;28;20035;-74
2022/11/12 11:24:36;;;;;;;13.18;12.68;;;7.20;99.90;;;;;;5006510;28;20088;-74
2022/11/12 11:27:28;;;;;;;13.07;12.57;;;7.10;99.90;;;;;;5004284;28;20053;-74
2022/11/12 11:30:02;;;;;;;14.32;13.82;;;6.90;99.90;;;;;;4994000;28;20019;-77
2022/11/12 11:32:34;;;;;;;15.07;14.48;;;6.90;99.90;;;;;;4981839;28;20037;-74
2022/11/12 11:35:21;;;;;;;15.20;14.60;;;7.00;99.90;;;;;;5005831;28;20041;-77
2022/11/12 11:37:52;;;;;;;15.50;14.90;;;7.00;99.90;;;;;;4981699;28;20034;-76
2022/11/12 11:40:28;;;;;;;15.30;14.75;;;7.10;99.90;;;;;;4993401;28;20030;-74
2022/11/12 11:43:01;;;;;;;16.90;16.15;;;7.10;99.90;;;;;;4993104;28;20393;-74
2022/11/12 11:45:33;;;;;;;14.45;13.95;;;7.10;99.90;;;;;;4994876;28;20049;-74
2022/11/12 11:48:12;;;;;;;16.10;15.50;;;7.10;99.90;;;;;;5004848;28;20053;-74
2022/11/12 11:50:59;;;;;;;15.65;15.05;;;7.20;99.90;;;;;;5007623;28;20160;-74
2022/11/12 11:53:54;;;;;;;14.73;14.23;;;7.30;99.90;;;;;;4982093;28;20023;-74
2022/11/12 11:56:30;;;;;;;14.15;13.65;;;7.40;99.90;;;;;;4984929;28;20504;-74
2022/11/12 11:59:15;;;;;;;14.80;14.25;;;7.50;99.90;;;;;;4993368;28;20068;-74
2022/11/12 12:01:59;;;;;;;14.57;14.07;;;7.70;99.90;;;;;;4991666;28;20033;-74
2022/11/12 12:04:48;;;;;;;15.05;14.45;;;7.70;99.90;;;;;;4994005;28;20034;-74
2022/11/12 12:07:44;;;;;;;14.25;13.75;;;7.70;99.90;;;;;;4987820;28;20029;-74
2022/11/12 12:10:36;;;;;;;12.80;12.30;;;7.80;99.90;;;;;;4996592;28;20045;-74
2022/11/12 12:13:23;;;;;;;14.73;14.23;;;7.80;99.90;;;;;;4993275;28;20026;-75
2022/11/12 12:15:52;;;;;;;14.95;14.35;;;7.90;99.90;;;;;;4983796;28;20033;-75
2022/11/12 12:18:37;;;;;;;14.70;14.18;;;7.80;99.90;;;;;;4980953;28;20029;-74
2022/11/12 12:21:16;;;;;;;14.00;13.50;;;7.80;99.90;;;;;;5007059;28;20018;-75
2022/11/12 12:24:00;;;;;;;14.48;13.80;;;7.90;99.90;;;;;;4993816;28;20332;-75
2022/11/12 12:26:40;;;;;;;13.32;12.77;;;7.90;99.90;;;;;;4979484;28;20044;-74
2022/11/12 12:29:24;;;;;;;18.63;17.83;;;7.80;99.90;;;;;;4981111;28;20019;-75
2022/11/12 12:32:12;;;;;;;14.88;14.27;;;7.80;99.90;;;;;;4982974;28;20477;-75
2022/11/12 12:35:00;;;;;;;14.40;13.90;;;7.80;99.90;;;;;;4999673;28;20066;-74
2022/11/12 12:37:34;;;;;;;14.70;14.20;;;7.80;99.90;;;;;;4988739;28;20476;-77
2022/11/12 12:40:12;;;;;;;15.30;14.75;;;7.60;99.90;;;;;;4993124;28;20038;-74
2022/11/12 12:42:43;;;;;;;16.23;15.63;;;7.60;99.90;;;;;;4993778;28;20026;-74
2022/11/12 12:45:36;;;;;;;15.63;15.02;;;7.60;99.90;;;;;;4993835;28;20026;-74
2022/11/12 12:48:06;;;;;;;16.17;15.57;;;7.70;99.90;;;;;;4981954;28;20088;-74
2022/11/12 12:50:35;;;;;;;16.00;15.40;;;7.80;99.90;;;;;;4992088;28;20523;-74
2022/11/12 12:53:14;;;;;;;15.90;15.30;;;7.90;99.90;;;;;;4993681;28;20036;-74
2022/11/12 12:55:48;;;;;;;15.75;15.05;;;7.90;99.90;;;;;;4994772;28;20440;-74
2022/11/12 12:58:27;;;;;;;17.63;17.02;;;7.70;99.90;;;;;;5013227;28;20049;-74
2022/11/12 13:01:00;;;;;;;17.10;16.50;;;7.80;99.90;;;;;;4981599;28;20026;-74
2022/11/12 13:03:41;;;;;;;18.13;17.33;;;7.80;99.90;;;;;;4993150;28;20423;-74
2022/11/12 13:06:24;;;;;;;15.50;14.90;;;7.80;99.90;;;;;;4982217;28;20082;-75
2022/11/12 13:09:06;;;;;;;15.32;14.77;;;7.70;99.90;;;;;;4990999;28;20018;-74
2022/11/12 13:14:34;;;;;;;17.60;16.92;;;8.10;99.90;;;;;;4993125;28;20092;-74
2022/11/12 13:17:03;;;;;;;15.30;14.75;;;8.10;99.90;;;;;;4980246;28;20030;-75
2022/11/12 13:19:52;;;;;;;16.63;16.02;;;8.10;99.90;;;;;;4980437;28;20057;-75
2022/11/12 13:22:17;;;;;;;15.40;14.80;;;8.30;99.90;;;;;;4969285;28;20114;-75
2022/11/12 13:25:08;;;;;;;15.32;14.75;;;8.30;99.90;;;;;;4984665;28;20576;-75
2022/11/12 13:27:39;;;;;;;14.90;14.40;;;8.10;99.90;;;;;;4985935;28;20027;-74
2022/11/12 13:30:17;;;;;;;14.95;14.45;;;8.10;99.90;;;;;;5002128;28;20535;-75